This is the latest recevied weather packets stored in our database for station/object OK1CBR-13. If no packets are shown the sender has not sent any weather packets the latest 10 day(s).
| Time | Temp. | Humidity | Pressure | Rain* | Wind** | Luminosity | Snow |
|---|---|---|---|---|---|---|---|
| 1778168253 | 21.67° C | 45% | 1013 hPa | - | - | - | - |
| 1778167653 | 20° C | 46% | 1013 hPa | - | - | - | - |
| 1778167053 | 21.11° C | 47% | 1012.9 hPa | - | - | - | - |
| 1778166453 | 20° C | 47% | 1013 hPa | - | - | - | - |
| 1778165853 | 18.89° C | 49% | 1012.9 hPa | - | - | - | - |
| 1778165253 | 21.11° C | 46% | 1012.9 hPa | - | - | - | - |
| 1778164653 | 20° C | 47% | 1012.9 hPa | - | - | - | - |
| 1778164053 | 20° C | 45% | 1012.9 hPa | - | - | - | - |
| 1778163453 | 19.44° C | 48% | 1013 hPa | - | - | - | - |
| 1778162853 | 18.89° C | 51% | 1013.1 hPa | - | - | - | - |
| 1778162253 | 18.89° C | 54% | 1013.1 hPa | - | - | - | - |
| 1778161654 | 18.33° C | 56% | 1013.1 hPa | - | - | - | - |
| 1778161053 | 18.89° C | 53% | 1013.3 hPa | - | - | - | - |
| 1778160453 | 18.33° C | 57% | 1013.2 hPa | - | - | - | - |
| 1778159853 | 18.89° C | 53% | 1013.2 hPa | - | - | - | - |
| 1778159253 | 18.33° C | 60% | 1013.3 hPa | - | - | - | - |
| 1778158654 | 17.78° C | 60% | 1013.1 hPa | - | - | - | - |
| 1778158053 | 18.33° C | 56% | 1013.1 hPa | - | - | - | - |
| 1778157453 | 18.89° C | 53% | 1013 hPa | - | - | - | - |
| 1778156853 | 19.44° C | 53% | 1012.9 hPa | - | - | - | - |
| 1778156253 | 19.44° C | 56% | 1012.8 hPa | - | - | - | - |
| 1778155653 | 18.33° C | 57% | 1012.8 hPa | - | - | - | - |
| 1778154453 | 18.89° C | 55% | 1012.7 hPa | - | - | - | - |
| 1778153853 | 17.78° C | 61% | 1012.7 hPa | - | - | - | - |
| 1778153254 | 17.78° C | 63% | 1012.7 hPa | - | - | - | - |
* Rain since midnight (hover to see other rain measurements)
** Current wind speed in m/s (hover to see current wind gust speed)